sensor_id;sensor_type;location;lat;lon;timestamp;temperature;humidity
52979;DHT22;63430;53.186;6.598;2022-12-29T00:00:53;11.30;99.90
52979;DHT22;63430;53.186;6.598;2022-12-29T00:02:55;10.30;99.90
52979;DHT22;63430;53.186;6.598;2022-12-29T00:04:58;11.10;99.90
52979;DHT22;63430;53.186;6.598;2022-12-29T00:07:01;10.30;99.90
52979;DHT22;63430;53.186;6.598;2022-12-29T00:09:10;10.30;99.90
52979;DHT22;63430;53.186;6.598;2022-12-29T00:11:15;10.30;99.90
52979;DHT22;63430;53.186;6.598;2022-12-29T00:13:22;10.30;99.90
52979;DHT22;63430;53.186;6.598;2022-12-29T00:15:43;9.40;99.90
52979;DHT22;63430;53.186;6.598;2022-12-29T00:17:45;10.30;99.90
52979;DHT22;63430;53.186;6.598;2022-12-29T00:19:48;10.30;99.90
52979;DHT22;63430;53.186;6.598;2022-12-29T00:22:12;10.30;99.90
52979;DHT22;63430;53.186;6.598;2022-12-29T00:24:36;10.40;99.90
52979;DHT22;63430;53.186;6.598;2022-12-29T00:26:38;10.40;99.90
52979;DHT22;63430;53.186;6.598;2022-12-29T00:29:00;10.80;99.90
52979;DHT22;63430;53.186;6.598;2022-12-29T00:31:25;10.90;99.90
52979;DHT22;63430;53.186;6.598;2022-12-29T00:33:47;10.40;99.90
52979;DHT22;63430;53.186;6.598;2022-12-29T00:36:13;10.40;99.90
52979;DHT22;63430;53.186;6.598;2022-12-29T00:38:18;10.50;99.90
52979;DHT22;63430;53.186;6.598;2022-12-29T00:40:42;10.40;99.90
52979;DHT22;63430;53.186;6.598;2022-12-29T00:43:03;10.40;99.90
52979;DHT22;63430;53.186;6.598;2022-12-29T00:45:25;10.50;99.90
52979;DHT22;63430;53.186;6.598;2022-12-29T00:47:35;10.50;99.90
52979;DHT22;63430;53.186;6.598;2022-12-29T00:49:38;10.50;99.90
52979;DHT22;63430;53.186;6.598;2022-12-29T00:51:40;10.60;99.90
52979;DHT22;63430;53.186;6.598;2022-12-29T00:53:43;10.50;99.90
52979;DHT22;63430;53.186;6.598;2022-12-29T00:55:51;10.80;99.90
52979;DHT22;63430;53.186;6.598;2022-12-29T00:57:53;10.60;99.90
52979;DHT22;63430;53.186;6.598;2022-12-29T00:59:56;10.90;99.90
52979;DHT22;63430;53.186;6.598;2022-12-29T01:01:59;10.60;99.90
52979;DHT22;63430;53.186;6.598;2022-12-29T01:04:09;10.90;99.90
52979;DHT22;63430;53.186;6.598;2022-12-29T01:06:12;10.70;99.90
52979;DHT22;63430;53.186;6.598;2022-12-29T01:08:18;10.70;99.90
52979;DHT22;63430;53.186;6.598;2022-12-29T01:10:22;10.50;99.90
52979;DHT22;63430;53.186;6.598;2022-12-29T01:12:29;10.70;99.90
52979;DHT22;63430;53.186;6.598;2022-12-29T01:14:45;10.70;99.90
52979;DHT22;63430;53.186;6.598;2022-12-29T01:16:47;10.70;99.90
52979;DHT22;63430;53.186;6.598;2022-12-29T01:19:04;10.70;99.90
52979;DHT22;63430;53.186;6.598;2022-12-29T01:21:09;10.70;99.90
52979;DHT22;63430;53.186;6.598;2022-12-29T01:23:11;10.70;99.90
52979;DHT22;63430;53.186;6.598;2022-12-29T01:25:15;11.70;99.90
52979;DHT22;63430;53.186;6.598;2022-12-29T01:27:21;10.70;99.90
52979;DHT22;63430;53.186;6.598;2022-12-29T01:29:26;10.70;99.90
52979;DHT22;63430;53.186;6.598;2022-12-29T01:31:37;10.70;99.90
52979;DHT22;63430;53.186;6.598;2022-12-29T01:33:39;10.70;99.90
52979;DHT22;63430;53.186;6.598;2022-12-29T01:35:42;10.70;99.90
52979;DHT22;63430;53.186;6.598;2022-12-29T01:37:45;10.70;99.90
52979;DHT22;63430;53.186;6.598;2022-12-29T01:39:54;10.60;99.90
52979;DHT22;63430;53.186;6.598;2022-12-29T01:41:57;10.70;99.90
52979;DHT22;63430;53.186;6.598;2022-12-29T01:44:00;10.60;99.90
52979;DHT22;63430;53.186;6.598;2022-12-29T01:46:11;10.70;99.90
52979;DHT22;63430;53.186;6.598;2022-12-29T01:48:16;10.70;99.90
52979;DHT22;63430;53.186;6.598;2022-12-29T01:50:20;10.60;99.90
52979;DHT22;63430;53.186;6.598;2022-12-29T01:52:26;10.60;99.90
52979;DHT22;63430;53.186;6.598;2022-12-29T01:54:32;10.60;99.90
52979;DHT22;63430;53.186;6.598;2022-12-29T01:56:41;10.50;99.90
52979;DHT22;63430;53.186;6.598;2022-12-29T01:58:46;10.90;99.90
52979;DHT22;63430;53.186;6.598;2022-12-29T02:00:51;10.40;99.90
52979;DHT22;63430;53.186;6.598;2022-12-29T02:02:56;11.00;99.90
52979;DHT22;63430;53.186;6.598;2022-12-29T02:05:01;10.40;99.90
52979;DHT22;63430;53.186;6.598;2022-12-29T02:07:18;10.40;99.90
52979;DHT22;63430;53.186;6.598;2022-12-29T02:09:26;10.40;99.90
52979;DHT22;63430;53.186;6.598;2022-12-29T02:11:30;10.40;99.90
52979;DHT22;63430;53.186;6.598;2022-12-29T02:13:33;10.50;99.90
52979;DHT22;63430;53.186;6.598;2022-12-29T02:15:45;10.40;99.90
52979;DHT22;63430;53.186;6.598;2022-12-29T02:18:09;10.40;99.90
52979;DHT22;63430;53.186;6.598;2022-12-29T02:20:49;10.40;99.90
52979;DHT22;63430;53.186;6.598;2022-12-29T02:23:36;10.40;99.90
52979;DHT22;63430;53.186;6.598;2022-12-29T02:26:04;10.90;99.90
52979;DHT22;63430;53.186;6.598;2022-12-29T02:28:38;10.40;99.90
52979;DHT22;63430;53.186;6.598;2022-12-29T02:30:55;10.40;99.90
52979;DHT22;63430;53.186;6.598;2022-12-29T02:33:00;10.50;99.90
52979;DHT22;63430;53.186;6.598;2022-12-29T02:35:17;10.40;99.90
52979;DHT22;63430;53.186;6.598;2022-12-29T02:37:25;10.50;99.90
52979;DHT22;63430;53.186;6.598;2022-12-29T02:39:37;10.50;99.90
52979;DHT22;63430;53.186;6.598;2022-12-29T02:41:50;10.50;99.90
52979;DHT22;63430;53.186;6.598;2022-12-29T02:44:04;10.50;99.90
52979;DHT22;63430;53.186;6.598;2022-12-29T02:46:16;10.50;99.90
52979;DHT22;63430;53.186;6.598;2022-12-29T02:48:27;10.50;99.90
52979;DHT22;63430;53.186;6.598;2022-12-29T02:50:34;10.50;99.90
52979;DHT22;63430;53.186;6.598;2022-12-29T02:52:42;10.40;99.90
52979;DHT22;63430;53.186;6.598;2022-12-29T02:54:48;10.50;99.90
52979;DHT22;63430;53.186;6.598;2022-12-29T02:56:51;10.40;99.90
52979;DHT22;63430;53.186;6.598;2022-12-29T02:58:56;11.30;99.90
52979;DHT22;63430;53.186;6.598;2022-12-29T03:01:15;10.40;99.90
52979;DHT22;63430;53.186;6.598;2022-12-29T03:03:32;10.50;99.90
52979;DHT22;63430;53.186;6.598;2022-12-29T03:05:53;10.90;99.90
52979;DHT22;63430;53.186;6.598;2022-12-29T03:08:06;10.50;99.90
52979;DHT22;63430;53.186;6.598;2022-12-29T03:10:30;10.60;99.90
52979;DHT22;63430;53.186;6.598;2022-12-29T03:12:45;11.40;99.90
52979;DHT22;63430;53.186;6.598;2022-12-29T03:15:12;10.60;99.90
52979;DHT22;63430;53.186;6.598;2022-12-29T03:17:46;10.60;99.90
52979;DHT22;63430;53.186;6.598;2022-12-29T03:20:02;10.50;99.90
52979;DHT22;63430;53.186;6.598;2022-12-29T03:22:09;10.50;99.90
52979;DHT22;63430;53.186;6.598;2022-12-29T03:24:43;10.60;99.90
52979;DHT22;63430;53.186;6.598;2022-12-29T03:26:53;10.60;99.90
52979;DHT22;63430;53.186;6.598;2022-12-29T03:28:57;10.50;99.90
52979;DHT22;63430;53.186;6.598;2022-12-29T03:31:04;10.60;99.90
52979;DHT22;63430;53.186;6.598;2022-12-29T03:33:14;10.60;99.90
52979;DHT22;63430;53.186;6.598;2022-12-29T03:35:19;10.60;99.90
52979;DHT22;63430;53.186;6.598;2022-12-29T03:37:28;10.60;99.90
52979;DHT22;63430;53.186;6.598;2022-12-29T03:39:34;10.60;99.90
52979;DHT22;63430;53.186;6.598;2022-12-29T03:41:40;10.50;99.90
52979;DHT22;63430;53.186;6.598;2022-12-29T03:43:45;10.50;99.90
52979;DHT22;63430;53.186;6.598;2022-12-29T03:45:50;10.50;99.90
52979;DHT22;63430;53.186;6.598;2022-12-29T03:47:53;10.40;99.90
52979;DHT22;63430;53.186;6.598;2022-12-29T03:50:00;10.40;99.90
52979;DHT22;63430;53.186;6.598;2022-12-29T03:52:13;10.30;99.90
52979;DHT22;63430;53.186;6.598;2022-12-29T03:54:18;10.10;99.90
52979;DHT22;63430;53.186;6.598;2022-12-29T03:56:21;10.30;99.90
52979;DHT22;63430;53.186;6.598;2022-12-29T03:58:27;11.00;99.90
52979;DHT22;63430;53.186;6.598;2022-12-29T04:00:56;10.30;99.90
52979;DHT22;63430;53.186;6.598;2022-12-29T04:02:59;10.30;99.90
52979;DHT22;63430;53.186;6.598;2022-12-29T04:05:06;10.30;99.90
52979;DHT22;63430;53.186;6.598;2022-12-29T04:07:09;10.30;99.90
52979;DHT22;63430;53.186;6.598;2022-12-29T04:09:12;10.30;99.90
52979;DHT22;63430;53.186;6.598;2022-12-29T04:11:20;10.40;99.90
52979;DHT22;63430;53.186;6.598;2022-12-29T04:13:24;10.40;99.90
52979;DHT22;63430;53.186;6.598;2022-12-29T04:15:32;10.40;99.90
52979;DHT22;63430;53.186;6.598;2022-12-29T04:17:34;10.40;99.90
52979;DHT22;63430;53.186;6.598;2022-12-29T04:19:38;10.40;99.90
52979;DHT22;63430;53.186;6.598;2022-12-29T04:21:44;10.40;99.90
52979;DHT22;63430;53.186;6.598;2022-12-29T04:23:46;10.40;99.90
52979;DHT22;63430;53.186;6.598;2022-12-29T04:25:51;10.40;99.90
52979;DHT22;63430;53.186;6.598;2022-12-29T04:27:54;10.40;99.90
52979;DHT22;63430;53.186;6.598;2022-12-29T04:30:40;11.00;99.90
52979;DHT22;63430;53.186;6.598;2022-12-29T04:32:58;10.90;99.90
52979;DHT22;63430;53.186;6.598;2022-12-29T04:35:03;10.90;99.90
52979;DHT22;63430;53.186;6.598;2022-12-29T04:37:10;10.40;99.90
52979;DHT22;63430;53.186;6.598;2022-12-29T04:39:13;10.40;99.90
52979;DHT22;63430;53.186;6.598;2022-12-29T04:41:17;10.40;99.90
52979;DHT22;63430;53.186;6.598;2022-12-29T04:43:19;10.40;99.90
52979;DHT22;63430;53.186;6.598;2022-12-29T04:46:01;10.90;99.90
52979;DHT22;63430;53.186;6.598;2022-12-29T04:48:13;10.40;99.90
52979;DHT22;63430;53.186;6.598;2022-12-29T04:50:33;10.40;99.90
52979;DHT22;63430;53.186;6.598;2022-12-29T04:53:00;10.40;99.90
52979;DHT22;63430;53.186;6.598;2022-12-29T04:55:03;10.50;99.90
52979;DHT22;63430;53.186;6.598;2022-12-29T04:57:07;10.40;99.90
52979;DHT22;63430;53.186;6.598;2022-12-29T04:59:12;10.30;99.90
52979;DHT22;63430;53.186;6.598;2022-12-29T05:01:16;10.30;99.90
52979;DHT22;63430;53.186;6.598;2022-12-29T05:03:20;9.70;99.90
52979;DHT22;63430;53.186;6.598;2022-12-29T05:05:23;10.20;99.90
52979;DHT22;63430;53.186;6.598;2022-12-29T05:07:26;10.20;99.90
52979;DHT22;63430;53.186;6.598;2022-12-29T05:09:32;10.20;99.90
52979;DHT22;63430;53.186;6.598;2022-12-29T05:11:35;10.30;99.90
52979;DHT22;63430;53.186;6.598;2022-12-29T05:13:38;11.00;99.90
52979;DHT22;63430;53.186;6.598;2022-12-29T05:15:41;10.10;99.90
52979;DHT22;63430;53.186;6.598;2022-12-29T05:17:48;10.10;99.90
52979;DHT22;63430;53.186;6.598;2022-12-29T05:19:50;10.00;99.90
52979;DHT22;63430;53.186;6.598;2022-12-29T05:21:53;10.10;99.90
52979;DHT22;63430;53.186;6.598;2022-12-29T05:23:57;10.00;99.90
52979;DHT22;63430;53.186;6.598;2022-12-29T05:26:02;10.00;99.90
52979;DHT22;63430;53.186;6.598;2022-12-29T05:28:20;10.00;99.90
52979;DHT22;63430;53.186;6.598;2022-12-29T05:30:24;10.50;99.90
52979;DHT22;63430;53.186;6.598;2022-12-29T05:32:27;9.90;99.90
52979;DHT22;63430;53.186;6.598;2022-12-29T05:34:29;9.90;99.90
52979;DHT22;63430;53.186;6.598;2022-12-29T05:36:32;9.90;99.90
52979;DHT22;63430;53.186;6.598;2022-12-29T05:38:40;9.80;99.90
52979;DHT22;63430;53.186;6.598;2022-12-29T05:40:43;10.30;99.90
52979;DHT22;63430;53.186;6.598;2022-12-29T05:43:00;9.80;99.90
52979;DHT22;63430;53.186;6.598;2022-12-29T05:45:30;10.10;99.90
52979;DHT22;63430;53.186;6.598;2022-12-29T05:47:46;9.70;99.90
52979;DHT22;63430;53.186;6.598;2022-12-29T05:50:15;9.70;99.90
52979;DHT22;63430;53.186;6.598;2022-12-29T05:52:43;9.70;99.90
52979;DHT22;63430;53.186;6.598;2022-12-29T05:54:46;10.50;99.90
52979;DHT22;63430;53.186;6.598;2022-12-29T05:56:52;9.70;99.90
52979;DHT22;63430;53.186;6.598;2022-12-29T05:58:58;10.70;99.90
52979;DHT22;63430;53.186;6.598;2022-12-29T06:01:00;9.70;99.90
52979;DHT22;63430;53.186;6.598;2022-12-29T06:03:08;9.20;99.90
52979;DHT22;63430;53.186;6.598;2022-12-29T06:05:11;9.80;99.90
52979;DHT22;63430;53.186;6.598;2022-12-29T06:07:14;9.80;99.90
52979;DHT22;63430;53.186;6.598;2022-12-29T06:09:26;9.80;99.90
52979;DHT22;63430;53.186;6.598;2022-12-29T06:11:31;9.80;99.90
52979;DHT22;63430;53.186;6.598;2022-12-29T06:13:34;10.10;99.90
52979;DHT22;63430;53.186;6.598;2022-12-29T06:15:41;9.80;99.90
52979;DHT22;63430;53.186;6.598;2022-12-29T06:17:46;10.00;99.90
52979;DHT22;63430;53.186;6.598;2022-12-29T06:19:52;10.00;99.90
52979;DHT22;63430;53.186;6.598;2022-12-29T06:21:56;10.70;99.90
52979;DHT22;63430;53.186;6.598;2022-12-29T06:23:59;10.10;99.90
52979;DHT22;63430;53.186;6.598;2022-12-29T06:26:01;9.80;99.90
52979;DHT22;63430;53.186;6.598;2022-12-29T06:28:04;9.80;99.90
52979;DHT22;63430;53.186;6.598;2022-12-29T06:30:09;9.80;99.90
52979;DHT22;63430;53.186;6.598;2022-12-29T06:32:36;9.80;99.90
52979;DHT22;63430;53.186;6.598;2022-12-29T06:35:00;9.70;99.90
52979;DHT22;63430;53.186;6.598;2022-12-29T06:37:23;9.70;99.90
52979;DHT22;63430;53.186;6.598;2022-12-29T06:39:45;9.70;99.90
52979;DHT22;63430;53.186;6.598;2022-12-29T06:42:09;10.00;99.90
52979;DHT22;63430;53.186;6.598;2022-12-29T06:45:08;9.70;99.90
52979;DHT22;63430;53.186;6.598;2022-12-29T06:47:31;9.60;99.90
52979;DHT22;63430;53.186;6.598;2022-12-29T06:49:56;9.60;99.90
52979;DHT22;63430;53.186;6.598;2022-12-29T06:52:00;9.60;99.90
52979;DHT22;63430;53.186;6.598;2022-12-29T06:54:14;9.60;99.90
52979;DHT22;63430;53.186;6.598;2022-12-29T06:56:17;9.60;99.90
52979;DHT22;63430;53.186;6.598;2022-12-29T06:58:20;9.60;99.90
52979;DHT22;63430;53.186;6.598;2022-12-29T07:00:25;9.60;99.90
52979;DHT22;63430;53.186;6.598;2022-12-29T07:02:28;9.50;99.90
52979;DHT22;63430;53.186;6.598;2022-12-29T07:04:33;10.40;99.90
52979;DHT22;63430;53.186;6.598;2022-12-29T07:06:38;9.50;99.90
52979;DHT22;63430;53.186;6.598;2022-12-29T07:08:43;9.50;99.90
52979;DHT22;63430;53.186;6.598;2022-12-29T07:10:51;9.50;99.90
52979;DHT22;63430;53.186;6.598;2022-12-29T07:12:57;9.60;99.90
52979;DHT22;63430;53.186;6.598;2022-12-29T07:15:03;8.90;99.90
52979;DHT22;63430;53.186;6.598;2022-12-29T07:17:06;9.60;99.90
52979;DHT22;63430;53.186;6.598;2022-12-29T07:19:10;9.60;99.90
52979;DHT22;63430;53.186;6.598;2022-12-29T07:21:14;9.60;99.90
52979;DHT22;63430;53.186;6.598;2022-12-29T07:23:20;9.60;99.90
52979;DHT22;63430;53.186;6.598;2022-12-29T07:25:23;9.60;99.90
52979;DHT22;63430;53.186;6.598;2022-12-29T07:27:26;9.60;99.90
52979;DHT22;63430;53.186;6.598;2022-12-29T07:29:28;9.60;99.90
52979;DHT22;63430;53.186;6.598;2022-12-29T07:31:32;9.60;99.90
52979;DHT22;63430;53.186;6.598;2022-12-29T07:33:37;9.60;99.90
52979;DHT22;63430;53.186;6.598;2022-12-29T07:35:40;9.60;99.90
52979;DHT22;63430;53.186;6.598;2022-12-29T07:37:42;9.70;99.90
52979;DHT22;63430;53.186;6.598;2022-12-29T07:39:47;10.80;99.90
52979;DHT22;63430;53.186;6.598;2022-12-29T07:41:50;9.70;99.90
52979;DHT22;63430;53.186;6.598;2022-12-29T07:43:55;9.70;99.90
52979;DHT22;63430;53.186;6.598;2022-12-29T07:46:11;9.70;99.90
52979;DHT22;63430;53.186;6.598;2022-12-29T07:48:33;9.70;99.90
52979;DHT22;63430;53.186;6.598;2022-12-29T07:50:38;9.70;99.90
52979;DHT22;63430;53.186;6.598;2022-12-29T07:52:40;9.70;99.90
52979;DHT22;63430;53.186;6.598;2022-12-29T07:54:43;9.80;99.90
52979;DHT22;63430;53.186;6.598;2022-12-29T07:56:49;9.80;99.90
52979;DHT22;63430;53.186;6.598;2022-12-29T07:58:54;9.80;99.90
52979;DHT22;63430;53.186;6.598;2022-12-29T08:00:57;9.70;99.90
52979;DHT22;63430;53.186;6.598;2022-12-29T08:03:02;10.00;99.90
52979;DHT22;63430;53.186;6.598;2022-12-29T08:05:06;9.70;99.90
52979;DHT22;63430;53.186;6.598;2022-12-29T08:07:09;9.70;99.90
52979;DHT22;63430;53.186;6.598;2022-12-29T08:09:12;9.70;99.90
52979;DHT22;63430;53.186;6.598;2022-12-29T08:11:23;9.60;99.90
52979;DHT22;63430;53.186;6.598;2022-12-29T08:13:29;9.70;99.90
52979;DHT22;63430;53.186;6.598;2022-12-29T08:15:31;9.70;99.90
52979;DHT22;63430;53.186;6.598;2022-12-29T08:17:34;9.80;99.90
52979;DHT22;63430;53.186;6.598;2022-12-29T08:19:37;10.40;99.90
52979;DHT22;63430;53.186;6.598;2022-12-29T08:21:39;9.80;99.90
52979;DHT22;63430;53.186;6.598;2022-12-29T08:23:48;9.80;99.90
52979;DHT22;63430;53.186;6.598;2022-12-29T08:25:57;9.70;99.90
52979;DHT22;63430;53.186;6.598;2022-12-29T08:28:00;9.70;99.90
52979;DHT22;63430;53.186;6.598;2022-12-29T08:30:06;9.50;99.90
52979;DHT22;63430;53.186;6.598;2022-12-29T08:32:10;9.70;99.90
52979;DHT22;63430;53.186;6.598;2022-12-29T08:34:13;9.70;99.90
52979;DHT22;63430;53.186;6.598;2022-12-29T08:36:16;9.80;99.90
52979;DHT22;63430;53.186;6.598;2022-12-29T08:38:18;10.00;99.90
52979;DHT22;63430;53.186;6.598;2022-12-29T08:40:21;10.30;99.90
52979;DHT22;63430;53.186;6.598;2022-12-29T08:42:25;10.20;99.90
52979;DHT22;63430;53.186;6.598;2022-12-29T08:44:33;9.70;99.90
52979;DHT22;63430;53.186;6.598;2022-12-29T08:46:38;9.60;99.90
52979;DHT22;63430;53.186;6.598;2022-12-29T08:48:44;10.40;99.90
52979;DHT22;63430;53.186;6.598;2022-12-29T08:50:47;9.50;99.90
52979;DHT22;63430;53.186;6.598;2022-12-29T08:52:50;9.50;99.90
52979;DHT22;63430;53.186;6.598;2022-12-29T08:54:54;9.50;99.90
52979;DHT22;63430;53.186;6.598;2022-12-29T08:56:57;9.40;99.90
52979;DHT22;63430;53.186;6.598;2022-12-29T08:59:10;9.80;99.90
52979;DHT22;63430;53.186;6.598;2022-12-29T09:01:13;9.40;99.90
52979;DHT22;63430;53.186;6.598;2022-12-29T09:03:18;10.20;99.90
52979;DHT22;63430;53.186;6.598;2022-12-29T09:05:40;9.40;99.90
52979;DHT22;63430;53.186;6.598;2022-12-29T09:07:43;9.50;99.90
52979;DHT22;63430;53.186;6.598;2022-12-29T09:09:46;9.40;99.90
52979;DHT22;63430;53.186;6.598;2022-12-29T09:11:48;9.40;99.90
52979;DHT22;63430;53.186;6.598;2022-12-29T09:14:04;9.40;99.90
52979;DHT22;63430;53.186;6.598;2022-12-29T09:16:07;9.50;99.90
52979;DHT22;63430;53.186;6.598;2022-12-29T09:18:11;9.50;99.90
52979;DHT22;63430;53.186;6.598;2022-12-29T09:20:24;9.50;99.90
52979;DHT22;63430;53.186;6.598;2022-12-29T09:22:29;9.50;99.90
52979;DHT22;63430;53.186;6.598;2022-12-29T09:24:34;9.50;99.90
52979;DHT22;63430;53.186;6.598;2022-12-29T09:26:36;9.50;99.90
52979;DHT22;63430;53.186;6.598;2022-12-29T09:28:47;9.50;99.90
52979;DHT22;63430;53.186;6.598;2022-12-29T09:30:50;9.50;99.90
52979;DHT22;63430;53.186;6.598;2022-12-29T09:32:53;10.40;99.90
52979;DHT22;63430;53.186;6.598;2022-12-29T09:35:01;9.40;99.90
52979;DHT22;63430;53.186;6.598;2022-12-29T09:37:07;9.40;99.90
52979;DHT22;63430;53.186;6.598;2022-12-29T09:39:09;9.40;99.90
52979;DHT22;63430;53.186;6.598;2022-12-29T09:41:20;9.30;99.90
52979;DHT22;63430;53.186;6.598;2022-12-29T09:43:45;9.40;99.90
52979;DHT22;63430;53.186;6.598;2022-12-29T09:46:07;9.40;99.90
52979;DHT22;63430;53.186;6.598;2022-12-29T09:54:04;9.30;99.90
52979;DHT22;63430;53.186;6.598;2022-12-29T09:56:19;9.40;99.90
52979;DHT22;63430;53.186;6.598;2022-12-29T09:58:35;9.40;99.90
52979;DHT22;63430;53.186;6.598;2022-12-29T10:00:48;9.40;99.90
52979;DHT22;63430;53.186;6.598;2022-12-29T10:03:00;10.50;99.90
52979;DHT22;63430;53.186;6.598;2022-12-29T10:05:25;9.40;99.90
52979;DHT22;63430;53.186;6.598;2022-12-29T10:11:13;9.50;99.90
52979;DHT22;63430;53.186;6.598;2022-12-29T10:13:28;9.40;99.90
52979;DHT22;63430;53.186;6.598;2022-12-29T10:15:41;9.40;99.90
52979;DHT22;63430;53.186;6.598;2022-12-29T10:17:52;9.40;99.90
52979;DHT22;63430;53.186;6.598;2022-12-29T10:20:22;9.30;99.90
52979;DHT22;63430;53.186;6.598;2022-12-29T10:22:39;9.30;99.90
52979;DHT22;63430;53.186;6.598;2022-12-29T10:24:50;8.90;99.90
52979;DHT22;63430;53.186;6.598;2022-12-29T10:26:58;9.20;99.90
52979;DHT22;63430;53.186;6.598;2022-12-29T10:29:04;9.90;99.90
52979;DHT22;63430;53.186;6.598;2022-12-29T10:31:12;9.20;99.90
52979;DHT22;63430;53.186;6.598;2022-12-29T10:33:18;9.20;99.90
52979;DHT22;63430;53.186;6.598;2022-12-29T10:35:24;9.90;99.90
52979;DHT22;63430;53.186;6.598;2022-12-29T10:37:34;9.10;99.90
52979;DHT22;63430;53.186;6.598;2022-12-29T10:39:45;9.10;99.90
52979;DHT22;63430;53.186;6.598;2022-12-29T10:41:51;8.50;99.90
52979;DHT22;63430;53.186;6.598;2022-12-29T10:44:00;9.00;99.90
52979;DHT22;63430;53.186;6.598;2022-12-29T10:46:08;8.90;99.90
52979;DHT22;63430;53.186;6.598;2022-12-29T10:48:19;8.90;99.90
52979;DHT22;63430;53.186;6.598;2022-12-29T10:50:36;8.90;99.90
52979;DHT22;63430;53.186;6.598;2022-12-29T10:52:45;8.90;99.90
52979;DHT22;63430;53.186;6.598;2022-12-29T10:54:49;9.10;99.90
52979;DHT22;63430;53.186;6.598;2022-12-29T10:57:01;8.30;99.90
52979;DHT22;63430;53.186;6.598;2022-12-29T10:59:17;9.00;99.90
52979;DHT22;63430;53.186;6.598;2022-12-29T11:01:22;9.00;99.90
52979;DHT22;63430;53.186;6.598;2022-12-29T11:03:58;9.00;99.90
52979;DHT22;63430;53.186;6.598;2022-12-29T11:06:07;9.00;99.90
52979;DHT22;63430;53.186;6.598;2022-12-29T11:08:16;9.00;99.90
52979;DHT22;63430;53.186;6.598;2022-12-29T11:10:30;9.10;99.90
52979;DHT22;63430;53.186;6.598;2022-12-29T11:12:36;9.10;99.90
52979;DHT22;63430;53.186;6.598;2022-12-29T11:14:41;9.20;99.90
52979;DHT22;63430;53.186;6.598;2022-12-29T11:16:44;9.30;99.90
52979;DHT22;63430;53.186;6.598;2022-12-29T11:18:58;9.30;99.90
52979;DHT22;63430;53.186;6.598;2022-12-29T11:21:04;9.30;99.90
52979;DHT22;63430;53.186;6.598;2022-12-29T11:23:22;9.30;99.90
52979;DHT22;63430;53.186;6.598;2022-12-29T11:25:26;9.30;99.90
52979;DHT22;63430;53.186;6.598;2022-12-29T11:27:31;9.40;99.90
52979;DHT22;63430;53.186;6.598;2022-12-29T11:29:38;9.40;99.90
52979;DHT22;63430;53.186;6.598;2022-12-29T11:31:44;9.60;99.90
52979;DHT22;63430;53.186;6.598;2022-12-29T11:33:47;9.40;99.90
52979;DHT22;63430;53.186;6.598;2022-12-29T11:35:50;9.50;99.90
52979;DHT22;63430;53.186;6.598;2022-12-29T11:37:56;9.50;99.90
52979;DHT22;63430;53.186;6.598;2022-12-29T11:40:04;9.50;99.90
52979;DHT22;63430;53.186;6.598;2022-12-29T11:42:15;9.60;99.90
52979;DHT22;63430;53.186;6.598;2022-12-29T11:44:18;10.40;99.90
52979;DHT22;63430;53.186;6.598;2022-12-29T11:46:26;9.60;99.90
52979;DHT22;63430;53.186;6.598;2022-12-29T11:48:39;9.70;99.90
52979;DHT22;63430;53.186;6.598;2022-12-29T11:51:05;9.60;99.90
52979;DHT22;63430;53.186;6.598;2022-12-29T11:53:32;9.60;99.90
52979;DHT22;63430;53.186;6.598;2022-12-29T11:56:00;9.70;99.90
52979;DHT22;63430;53.186;6.598;2022-12-29T11:58:29;9.70;99.90
52979;DHT22;63430;53.186;6.598;2022-12-29T12:00:52;9.70;99.90
52979;DHT22;63430;53.186;6.598;2022-12-29T12:03:17;9.80;99.90
52979;DHT22;63430;53.186;6.598;2022-12-29T12:05:47;9.80;99.90
52979;DHT22;63430;53.186;6.598;2022-12-29T12:08:19;9.80;99.90
52979;DHT22;63430;53.186;6.598;2022-12-29T12:10:48;9.90;99.90
52979;DHT22;63430;53.186;6.598;2022-12-29T12:13:21;10.30;99.90
52979;DHT22;63430;53.186;6.598;2022-12-29T12:15:49;10.00;99.90
52979;DHT22;63430;53.186;6.598;2022-12-29T12:18:30;10.10;99.90
52979;DHT22;63430;53.186;6.598;2022-12-29T12:20:58;10.10;99.90
52979;DHT22;63430;53.186;6.598;2022-12-29T12:23:33;10.20;99.90
52979;DHT22;63430;53.186;6.598;2022-12-29T12:26:02;10.00;99.90
52979;DHT22;63430;53.186;6.598;2022-12-29T12:28:34;9.90;99.90
52979;DHT22;63430;53.186;6.598;2022-12-29T12:30:59;9.90;99.90
52979;DHT22;63430;53.186;6.598;2022-12-29T12:33:26;10.00;99.90
52979;DHT22;63430;53.186;6.598;2022-12-29T12:36:02;11.00;99.90
52979;DHT22;63430;53.186;6.598;2022-12-29T12:38:18;9.90;99.90
52979;DHT22;63430;53.186;6.598;2022-12-29T12:40:43;9.80;99.90
52979;DHT22;63430;53.186;6.598;2022-12-29T12:43:01;9.70;99.90
52979;DHT22;63430;53.186;6.598;2022-12-29T12:45:32;9.70;99.90
52979;DHT22;63430;53.186;6.598;2022-12-29T12:47:47;9.70;99.90
52979;DHT22;63430;53.186;6.598;2022-12-29T12:50:18;9.70;99.90
52979;DHT22;63430;53.186;6.598;2022-12-29T12:52:33;9.70;99.90
52979;DHT22;63430;53.186;6.598;2022-12-29T12:54:54;9.60;99.90
52979;DHT22;63430;53.186;6.598;2022-12-29T12:57:07;9.60;99.90
52979;DHT22;63430;53.186;6.598;2022-12-29T12:59:24;9.70;99.90
52979;DHT22;63430;53.186;6.598;2022-12-29T13:01:37;9.70;99.90
52979;DHT22;63430;53.186;6.598;2022-12-29T13:03:53;9.70;99.90
52979;DHT22;63430;53.186;6.598;2022-12-29T13:06:18;9.70;99.90
52979;DHT22;63430;53.186;6.598;2022-12-29T13:08:52;9.60;99.90
52979;DHT22;63430;53.186;6.598;2022-12-29T13:11:02;9.70;99.90
52979;DHT22;63430;53.186;6.598;2022-12-29T13:13:33;9.70;99.90
52979;DHT22;63430;53.186;6.598;2022-12-29T13:15:43;9.70;99.90
52979;DHT22;63430;53.186;6.598;2022-12-29T13:17:54;9.70;99.90
52979;DHT22;63430;53.186;6.598;2022-12-29T13:20:04;9.60;99.90
52979;DHT22;63430;53.186;6.598;2022-12-29T13:22:17;9.60;99.90
52979;DHT22;63430;53.186;6.598;2022-12-29T13:24:31;9.70;99.90
52979;DHT22;63430;53.186;6.598;2022-12-29T13:26:42;9.60;99.90
52979;DHT22;63430;53.186;6.598;2022-12-29T13:28:52;9.60;99.90
52979;DHT22;63430;53.186;6.598;2022-12-29T13:31:01;8.90;99.90
52979;DHT22;63430;53.186;6.598;2022-12-29T13:33:14;9.60;99.90
52979;DHT22;63430;53.186;6.598;2022-12-29T13:35:37;9.60;99.90
52979;DHT22;63430;53.186;6.598;2022-12-29T13:37:48;9.60;99.90
52979;DHT22;63430;53.186;6.598;2022-12-29T13:39:59;9.60;99.90
52979;DHT22;63430;53.186;6.598;2022-12-29T13:42:04;9.50;99.90
52979;DHT22;63430;53.186;6.598;2022-12-29T13:44:15;9.60;99.90
52979;DHT22;63430;53.186;6.598;2022-12-29T13:46:23;9.60;99.90
52979;DHT22;63430;53.186;6.598;2022-12-29T13:48:34;9.60;99.90
52979;DHT22;63430;53.186;6.598;2022-12-29T13:50:39;9.60;99.90
52979;DHT22;63430;53.186;6.598;2022-12-29T13:52:49;10.60;99.90
52979;DHT22;63430;53.186;6.598;2022-12-29T13:55:07;10.00;99.90
52979;DHT22;63430;53.186;6.598;2022-12-29T13:57:18;9.60;99.90
52979;DHT22;63430;53.186;6.598;2022-12-29T13:59:38;9.70;99.90
52979;DHT22;63430;53.186;6.598;2022-12-29T14:01:50;10.00;99.90
52979;DHT22;63430;53.186;6.598;2022-12-29T14:03:58;9.70;99.90